createdAt,value
2018-01-24T00:01:12.199Z,67.47
2018-01-24T00:03:47.773Z,71.27
2018-01-24T00:06:14.927Z,64.93
2018-01-24T00:08:47.923Z,65.00
2018-01-24T00:11:14.825Z,63.87
2018-01-24T00:13:42.474Z,60.90
2018-01-24T00:16:12.484Z,60.00
2018-01-24T00:18:39.266Z,63.73
2018-01-24T00:21:06.050Z,58.37
2018-01-24T00:23:32.790Z,55.97
2018-01-24T00:25:59.577Z,59.83
2018-01-24T00:28:26.345Z,55.90
2018-01-24T00:30:53.253Z,54.93
2018-01-24T00:33:20.025Z,53.23
2018-01-24T00:35:46.822Z,51.57
2018-01-24T00:38:13.605Z,52.93
2018-01-24T00:40:40.536Z,61.57
2018-01-24T00:43:07.289Z,52.57
2018-01-24T00:45:34.073Z,48.07
2018-01-24T00:48:00.873Z,48.43
2018-01-24T00:50:27.705Z,52.70
2018-01-24T00:52:54.460Z,53.10
2018-01-24T00:55:21.202Z,50.00
2018-01-24T00:57:48.051Z,45.43
2018-01-24T01:00:14.883Z,48.53
2018-01-24T01:02:41.826Z,53.50
2018-01-24T01:05:08.571Z,47.77
2018-01-24T01:07:35.606Z,49.77
2018-01-24T01:10:02.543Z,43.83
2018-01-24T01:12:29.334Z,50.37
2018-01-24T01:14:56.113Z,51.50
2018-01-24T01:17:22.863Z,48.80
2018-01-24T01:19:50.058Z,46.70
2018-01-24T01:22:16.862Z,42.97
2018-01-24T01:24:43.703Z,45.17
2018-01-24T01:27:10.462Z,41.87
2018-01-24T01:29:37.427Z,43.47
2018-01-24T01:32:04.370Z,48.00
2018-01-24T01:34:31.126Z,42.67
2018-01-24T01:36:58.614Z,44.87
2018-01-24T01:39:25.378Z,40.10
2018-01-24T01:41:52.122Z,40.80
2018-01-24T01:44:18.913Z,38.43
2018-01-24T01:46:45.721Z,35.57
2018-01-24T01:49:12.487Z,38.30
2018-01-24T01:51:39.417Z,39.93
2018-01-24T01:54:06.189Z,40.00
2018-01-24T01:56:32.969Z,39.47
2018-01-24T01:58:59.740Z,37.93
2018-01-24T02:01:26.688Z,37.93
2018-01-24T02:03:53.513Z,35.53
2018-01-24T02:06:20.259Z,36.83
2018-01-24T02:08:47.122Z,37.77
2018-01-24T02:11:13.998Z,42.63
2018-01-24T02:13:40.789Z,33.47
2018-01-24T02:16:07.561Z,35.27
2018-01-24T02:18:34.370Z,38.83
2018-01-24T02:21:01.265Z,39.37
2018-01-24T02:23:28.137Z,33.57
2018-01-24T02:25:55.007Z,33.20
2018-01-24T02:28:21.989Z,38.70
2018-01-24T02:30:48.918Z,39.00
2018-01-24T02:33:15.959Z,35.33
2018-01-24T02:35:42.910Z,35.10
2018-01-24T02:38:09.843Z,40.27
2018-01-24T02:40:36.741Z,31.47
2018-01-24T02:43:03.849Z,39.47
2018-01-24T02:45:30.706Z,32.57
2018-01-24T02:47:57.794Z,31.70
2018-01-24T02:50:24.702Z,34.00
2018-01-24T02:52:51.752Z,31.03
2018-01-24T02:55:18.731Z,34.00
2018-01-24T02:57:45.679Z,36.77
2018-01-24T03:00:12.640Z,29.73
2018-01-24T03:02:39.470Z,36.07
2018-01-24T03:05:06.378Z,33.10
2018-01-24T03:07:33.454Z,35.07
2018-01-24T03:10:00.358Z,36.27
2018-01-24T03:12:27.425Z,33.73
2018-01-24T03:14:54.559Z,32.90
2018-01-24T03:17:21.488Z,31.47
2018-01-24T03:19:48.701Z,35.93
2018-01-24T03:22:15.748Z,32.60
2018-01-24T03:24:42.566Z,33.37
2018-01-24T03:27:09.434Z,31.73
2018-01-24T03:29:36.387Z,31.07
2018-01-24T03:32:03.398Z,28.77
2018-01-24T03:34:30.638Z,31.83
2018-01-24T03:36:57.653Z,28.17
2018-01-24T03:39:24.650Z,28.53
2018-01-24T03:41:51.764Z,31.17
2018-01-24T03:44:18.718Z,27.20
2018-01-24T03:46:45.686Z,29.03
2018-01-24T03:49:13.205Z,27.60
2018-01-24T03:51:40.073Z,26.73
2018-01-24T03:54:06.858Z,25.63
2018-01-24T03:56:33.852Z,29.17
2018-01-24T03:59:00.879Z,27.30
2018-01-24T04:01:27.866Z,26.60
2018-01-24T04:03:54.741Z,25.37
2018-01-24T04:06:21.673Z,31.27
2018-01-24T04:08:48.707Z,25.00
2018-01-24T04:11:15.709Z,30.83
2018-01-24T04:13:42.489Z,23.80
2018-01-24T04:16:09.462Z,28.23
2018-01-24T04:18:37.346Z,21.77
2018-01-24T04:21:04.273Z,24.33
2018-01-24T04:23:31.080Z,21.50
2018-01-24T04:25:58.085Z,22.40
2018-01-24T04:28:24.960Z,20.47
2018-01-24T04:30:51.855Z,20.20
2018-01-24T04:33:18.998Z,20.90
2018-01-24T04:35:45.926Z,21.73
2018-01-24T04:38:12.821Z,20.67
2018-01-24T04:40:39.689Z,20.80
2018-01-24T04:43:06.539Z,21.37
2018-01-24T04:45:33.489Z,14.53
2018-01-24T04:48:00.402Z,18.30
2018-01-24T04:50:27.610Z,16.67
2018-01-24T04:52:54.523Z,25.33
2018-01-24T04:55:21.526Z,17.57
2018-01-24T04:57:48.615Z,19.40
2018-01-24T05:00:15.522Z,17.07
2018-01-24T05:02:42.461Z,17.90
2018-01-24T05:05:09.442Z,15.13
2018-01-24T05:07:36.607Z,16.67
2018-01-24T05:10:03.592Z,12.67
2018-01-24T05:12:30.534Z,21.87
2018-01-24T05:14:57.767Z,19.17
2018-01-24T05:17:25.361Z,17.33
2018-01-24T05:19:52.251Z,19.27
2018-01-24T05:22:19.166Z,17.73
2018-01-24T05:24:46.147Z,21.77
2018-01-24T05:27:13.118Z,17.50
2018-01-24T05:29:40.027Z,16.83
2018-01-24T05:32:07.006Z,17.10
2018-01-24T05:34:33.926Z,11.20
2018-01-24T05:37:00.840Z,12.40
2018-01-24T05:39:27.773Z,12.17
2018-01-24T05:41:54.842Z,10.00
2018-01-24T05:44:21.934Z,12.20
2018-01-24T05:46:48.787Z,10.90
2018-01-24T05:49:15.696Z,12.03
2018-01-24T05:51:42.698Z,14.17
2018-01-24T05:54:09.707Z,13.03
2018-01-24T05:56:36.561Z,13.17
2018-01-24T05:59:03.560Z,16.57
2018-01-24T06:01:30.454Z,12.97
2018-01-24T06:03:58.430Z,16.03
2018-01-24T06:06:25.426Z,16.30
2018-01-24T06:08:52.226Z,14.10
2018-01-24T06:11:19.063Z,13.63
2018-01-24T06:13:45.982Z,18.03
2018-01-24T06:16:12.999Z,15.67
2018-01-24T06:18:40.022Z,14.07
2018-01-24T06:21:06.953Z,23.93
2018-01-24T06:23:33.737Z,31.30
2018-01-24T06:26:01.041Z,31.30
2018-01-24T06:28:27.992Z,37.87
2018-01-24T06:30:54.942Z,31.57
2018-01-24T06:33:21.909Z,25.90
2018-01-24T06:35:48.819Z,24.73
2018-01-24T06:38:15.969Z,16.97
2018-01-24T06:40:43.059Z,16.13
2018-01-24T06:43:10.513Z,14.80
2018-01-24T06:45:37.343Z,14.77
2018-01-24T06:48:04.135Z,10.57
2018-01-24T06:50:30.990Z,10.53
2018-01-24T06:52:57.905Z,16.10
2018-01-24T06:55:25.694Z,15.93
2018-01-24T06:57:53.353Z,13.47
2018-01-24T07:00:20.278Z,9.90
2018-01-24T07:02:47.015Z,9.07
2018-01-24T07:05:13.803Z,10.47
2018-01-24T07:07:40.713Z,15.23
2018-01-24T07:10:07.602Z,9.03
2018-01-24T07:12:40.488Z,10.40
2018-01-24T07:15:07.237Z,9.93
2018-01-24T07:17:34.594Z,13.20
2018-01-24T07:20:01.601Z,10.57
2018-01-24T07:22:28.360Z,11.00
2018-01-24T07:24:55.222Z,12.00
2018-01-24T07:27:22.013Z,9.67
2018-01-24T07:29:48.769Z,14.10
2018-01-24T07:32:15.591Z,16.37
2018-01-24T07:34:42.343Z,13.30
2018-01-24T07:37:09.139Z,13.33
2018-01-24T07:39:35.891Z,17.63
2018-01-24T07:42:02.867Z,19.47
2018-01-24T07:44:29.636Z,22.23
2018-01-24T07:46:56.418Z,23.50
2018-01-24T07:49:23.193Z,17.87
2018-01-24T07:51:49.910Z,9.40
2018-01-24T07:54:16.677Z,11.13
2018-01-24T07:56:43.461Z,11.77
2018-01-24T07:59:10.266Z,12.37
2018-01-24T08:01:37.339Z,13.43
2018-01-24T08:04:04.149Z,16.13
2018-01-24T08:06:30.916Z,15.20
2018-01-24T08:08:57.750Z,13.23
2018-01-24T08:11:24.503Z,14.40
2018-01-24T08:13:51.287Z,10.33
2018-01-24T08:16:18.112Z,10.33
2018-01-24T08:18:44.853Z,5.93
2018-01-24T08:21:11.630Z,7.70
2018-01-24T08:23:38.421Z,15.00
2018-01-24T08:26:05.201Z,44.37
2018-01-24T08:28:31.949Z,22.50
2018-01-24T08:30:58.690Z,15.37
2018-01-24T08:33:26.154Z,10.63
2018-01-24T08:35:52.894Z,7.93
2018-01-24T08:38:19.785Z,8.43
2018-01-24T08:40:46.596Z,9.00
2018-01-24T08:43:13.779Z,8.40
2018-01-24T08:45:40.827Z,7.27
2018-01-24T08:48:08.297Z,7.50
2018-01-24T08:50:35.077Z,6.53
2018-01-24T08:53:01.840Z,4.53
2018-01-24T08:55:28.745Z,8.07
2018-01-24T08:57:55.549Z,5.80
2018-01-24T09:00:22.718Z,6.33
2018-01-24T09:02:50.390Z,6.83
2018-01-24T09:05:17.203Z,6.73
2018-01-24T09:07:44.029Z,6.80
2018-01-24T09:10:10.800Z,5.13
2018-01-24T09:12:37.610Z,6.63
2018-01-24T09:15:04.431Z,6.27
2018-01-24T09:17:31.449Z,8.33
2018-01-24T09:19:58.378Z,9.30
2018-01-24T09:22:25.299Z,8.30
2018-01-24T09:24:52.463Z,14.23
2018-01-24T09:27:19.345Z,19.40
2018-01-24T09:29:46.369Z,18.93
2018-01-24T09:32:13.190Z,27.97
2018-01-24T09:34:40.142Z,35.77
2018-01-24T09:37:07.160Z,22.70
2018-01-24T09:39:34.835Z,14.07
2018-01-24T09:42:01.828Z,16.10
2018-01-24T09:44:28.600Z,14.87
2018-01-24T09:46:55.431Z,11.27
2018-01-24T09:49:22.298Z,10.40
2018-01-24T09:51:49.923Z,14.03
2018-01-24T09:54:16.825Z,10.87
2018-01-24T09:56:43.769Z,12.27
2018-01-24T09:59:10.577Z,12.77
2018-01-24T10:01:38.322Z,13.73
2018-01-24T10:04:05.262Z,15.63
2018-01-24T10:06:32.058Z,23.87
2018-01-24T10:08:58.799Z,29.10
2018-01-24T10:11:25.998Z,27.20
2018-01-24T10:13:53.157Z,24.37
2018-01-24T10:16:19.921Z,19.37
2018-01-24T10:18:51.814Z,18.90
2018-01-24T10:21:18.597Z,18.17
2018-01-24T10:23:45.438Z,17.83
2018-01-24T10:26:12.503Z,20.07
2018-01-24T10:28:39.265Z,16.33
2018-01-24T10:31:06.067Z,15.93
2018-01-24T10:33:32.825Z,16.30
2018-01-24T10:35:59.609Z,14.83
2018-01-24T10:38:27.685Z,13.87
2018-01-24T10:40:54.709Z,15.50
2018-01-24T10:43:21.577Z,16.13
2018-01-24T10:45:48.337Z,22.23
2018-01-24T10:48:16.272Z,23.23
2018-01-24T10:50:43.119Z,22.90
2018-01-24T10:53:09.896Z,18.20
2018-01-24T10:55:36.670Z,18.70
2018-01-24T10:58:03.512Z,18.10
2018-01-24T11:00:30.307Z,15.50
2018-01-24T11:02:57.301Z,17.83
2018-01-24T11:05:24.094Z,13.67
2018-01-24T11:07:50.873Z,26.93
2018-01-24T11:10:17.733Z,20.07
2018-01-24T11:12:44.515Z,24.73
2018-01-24T11:15:11.271Z,25.87
2018-01-24T11:17:38.070Z,28.27
2018-01-24T11:20:04.857Z,28.17
2018-01-24T11:22:31.645Z,26.30
2018-01-24T11:24:58.459Z,33.07
2018-01-24T11:27:25.305Z,25.57
2018-01-24T11:29:52.066Z,13.97
2018-01-24T11:32:18.905Z,13.80
2018-01-24T11:34:45.657Z,12.63
2018-01-24T11:37:12.398Z,10.90
2018-01-24T11:39:39.797Z,13.37
2018-01-24T11:42:06.694Z,10.33
2018-01-24T11:44:33.457Z,9.20
2018-01-24T11:47:00.238Z,14.27
2018-01-24T11:49:27.130Z,17.87
2018-01-24T11:51:53.915Z,26.83
2018-01-24T11:54:20.686Z,31.37
2018-01-24T11:56:47.673Z,31.93
2018-01-24T11:59:14.438Z,31.60
2018-01-24T12:01:41.486Z,45.50
2018-01-24T12:04:08.275Z,38.13
2018-01-24T12:06:35.079Z,30.77
2018-01-24T12:09:01.950Z,32.60
2018-01-24T12:11:28.926Z,20.30
2018-01-24T12:13:55.894Z,20.43
2018-01-24T12:16:22.722Z,16.60
2018-01-24T12:18:49.500Z,16.07
2018-01-24T12:21:16.374Z,13.17
2018-01-24T12:23:43.297Z,12.17
2018-01-24T12:26:10.182Z,11.60
2018-01-24T12:28:37.038Z,9.03
2018-01-24T12:31:03.921Z,11.93
2018-01-24T12:33:30.839Z,13.67
2018-01-24T12:35:58.008Z,11.10
2018-01-24T12:38:24.861Z,10.07
2018-01-24T12:40:51.782Z,10.63
2018-01-24T12:43:19.703Z,6.40
2018-01-24T12:45:46.542Z,5.33
2018-01-24T12:48:13.359Z,5.50
2018-01-24T12:50:40.157Z,6.33
2018-01-24T12:53:07.038Z,9.17
2018-01-24T12:55:33.866Z,6.27
2018-01-24T12:58:00.819Z,7.77
2018-01-24T13:00:27.589Z,7.70
2018-01-24T13:02:55.049Z,5.97
2018-01-24T13:05:21.966Z,6.37
2018-01-24T13:07:48.882Z,7.43
2018-01-24T13:10:15.890Z,8.03
2018-01-24T13:12:42.741Z,6.30
2018-01-24T13:15:09.562Z,6.73
2018-01-24T13:17:36.455Z,6.87
2018-01-24T13:20:03.489Z,5.80
2018-01-24T13:22:30.705Z,7.87
2018-01-24T13:24:57.651Z,9.00
2018-01-24T13:27:24.750Z,6.67
2018-01-24T13:29:51.834Z,6.83
2018-01-24T13:32:18.662Z,8.80
2018-01-24T13:34:46.496Z,8.30
2018-01-24T13:37:13.856Z,8.13
2018-01-24T13:39:40.655Z,7.97
2018-01-24T13:42:07.582Z,8.77
2018-01-24T13:44:34.673Z,11.23
2018-01-24T13:47:01.526Z,8.20
2018-01-24T13:49:28.540Z,9.80
2018-01-24T13:51:55.460Z,10.07
2018-01-24T13:54:22.283Z,12.77
2018-01-24T13:56:49.157Z,14.40
2018-01-24T13:59:16.074Z,11.07
2018-01-24T14:01:42.962Z,9.93
2018-01-24T14:04:09.776Z,8.80
2018-01-24T14:06:36.863Z,11.30
2018-01-24T14:09:03.822Z,12.30
2018-01-24T14:11:30.724Z,12.13
2018-01-24T14:13:57.820Z,13.00
2018-01-24T14:16:24.637Z,15.60
2018-01-24T14:18:51.480Z,14.80
2018-01-24T14:21:18.350Z,14.43
2018-01-24T14:23:45.243Z,16.57
2018-01-24T14:26:12.076Z,14.80
2018-01-24T14:28:39.108Z,11.83
2018-01-24T14:31:06.110Z,11.83
2018-01-24T14:33:32.983Z,11.83
2018-01-24T14:35:59.945Z,13.53
2018-01-24T14:38:27.089Z,12.80
2018-01-24T14:40:54.697Z,14.13
2018-01-24T14:43:21.614Z,11.60
2018-01-24T14:45:48.653Z,9.77
2018-01-24T14:48:15.522Z,9.00
2018-01-24T14:50:42.620Z,8.73
2018-01-24T14:53:10.007Z,17.33
2018-01-24T14:55:36.925Z,9.40
2018-01-24T14:58:04.000Z,9.17
2018-01-24T15:00:30.858Z,10.40
2018-01-24T15:02:57.656Z,11.67
2018-01-24T15:05:24.637Z,12.90
2018-01-24T15:07:51.558Z,17.13
2018-01-24T15:10:18.618Z,16.07
2018-01-24T15:12:45.618Z,16.90
2018-01-24T15:15:13.178Z,33.10
2018-01-24T15:17:40.188Z,34.53
2018-01-24T15:20:07.230Z,39.23
2018-01-24T15:22:34.021Z,37.03
2018-01-24T15:25:01.056Z,37.03
2018-01-24T15:27:27.874Z,30.87
2018-01-24T15:29:54.705Z,20.10
2018-01-24T15:32:21.676Z,19.17
2018-01-24T15:34:48.506Z,27.43
2018-01-24T15:37:15.678Z,23.90
2018-01-24T15:39:42.516Z,17.97
2018-01-24T15:42:09.487Z,16.37
2018-01-24T15:44:36.386Z,12.47
2018-01-24T15:47:03.230Z,15.37
2018-01-24T15:49:30.320Z,22.97
2018-01-24T15:51:57.403Z,24.73
2018-01-24T15:54:24.333Z,35.10
2018-01-24T15:56:51.218Z,33.73
2018-01-24T15:59:18.114Z,30.03
2018-01-24T16:01:45.089Z,25.87
2018-01-24T16:04:12.444Z,22.37
2018-01-24T16:06:39.541Z,22.00
2018-01-24T16:09:06.471Z,15.23
2018-01-24T16:11:33.464Z,17.17
2018-01-24T16:14:00.915Z,16.77
2018-01-24T16:16:27.923Z,17.13
2018-01-24T16:18:54.855Z,20.80
2018-01-24T16:21:21.980Z,19.10
2018-01-24T16:23:48.992Z,15.97
2018-01-24T16:26:15.926Z,17.67
2018-01-24T16:28:42.774Z,17.27
2018-01-24T16:31:09.747Z,19.87
2018-01-24T16:33:36.693Z,33.83
2018-01-24T16:36:03.831Z,43.07
2018-01-24T16:38:30.898Z,43.80
2018-01-24T16:40:57.868Z,51.70
2018-01-24T16:43:25.239Z,50.13
2018-01-24T16:45:52.079Z,42.77
2018-01-24T16:48:20.939Z,39.80
2018-01-24T16:50:47.845Z,33.33
2018-01-24T16:53:24.370Z,37.43
2018-01-24T16:55:53.246Z,36.00
2018-01-24T16:58:20.078Z,36.20
2018-01-24T17:00:46.874Z,39.93
2018-01-24T17:03:13.895Z,38.07
2018-01-24T17:05:40.671Z,40.00
2018-01-24T17:08:07.465Z,34.40
2018-01-24T17:10:34.414Z,31.57
2018-01-24T17:13:01.206Z,23.00
2018-01-24T17:15:28.121Z,19.97
2018-01-24T17:17:54.906Z,22.20
2018-01-24T17:20:21.754Z,23.83
2018-01-24T17:22:48.783Z,18.73
2018-01-24T17:25:16.246Z,18.90
2018-01-24T17:27:43.046Z,28.43
2018-01-24T17:30:09.827Z,25.77
2018-01-24T17:32:36.721Z,23.03
2018-01-24T17:35:03.514Z,19.77
2018-01-24T17:37:30.501Z,21.23
2018-01-24T17:39:57.299Z,21.93
2018-01-24T17:45:19.838Z,24.57
2018-01-24T17:47:46.719Z,24.97
2018-01-24T17:50:13.918Z,21.47
2018-01-24T17:52:42.148Z,25.43
2018-01-24T17:55:09.117Z,23.90
2018-01-24T17:57:36.110Z,23.27
2018-01-24T18:00:03.197Z,24.70
2018-01-24T18:02:30.167Z,19.93
2018-01-24T18:04:57.822Z,23.00
2018-01-24T18:07:33.452Z,27.80
2018-01-24T18:10:00.224Z,27.40
2018-01-24T18:12:26.982Z,24.83
2018-01-24T18:14:53.773Z,21.63
2018-01-24T18:17:20.593Z,24.43
2018-01-24T18:19:47.362Z,22.07
2018-01-24T18:22:14.149Z,31.40
2018-01-24T18:24:40.953Z,23.50
2018-01-24T18:27:07.738Z,24.87
2018-01-24T18:29:34.534Z,23.73
2018-01-24T18:32:01.630Z,23.13
2018-01-24T18:34:28.421Z,29.10
2018-01-24T18:36:55.176Z,22.83
2018-01-24T18:39:22.898Z,21.80
2018-01-24T18:41:49.930Z,26.07
2018-01-24T18:44:16.717Z,25.00
2018-01-24T18:46:43.564Z,25.57
2018-01-24T18:49:19.675Z,27.90
2018-01-24T18:51:48.145Z,27.00
2018-01-24T18:54:14.967Z,27.87
2018-01-24T18:56:41.742Z,25.17
2018-01-24T18:59:09.783Z,27.83
2018-01-24T19:01:36.658Z,24.10
2018-01-24T19:04:03.484Z,23.90
2018-01-24T19:06:30.254Z,24.10
2018-01-24T19:08:57.120Z,24.10
2018-01-24T19:11:23.871Z,28.37
2018-01-24T19:13:50.659Z,23.87
2018-01-24T19:16:17.427Z,26.17
2018-01-24T19:18:44.249Z,26.00
2018-01-24T19:21:11.110Z,22.23
2018-01-24T19:23:37.981Z,27.77
2018-01-24T19:26:04.836Z,28.40
2018-01-24T19:28:31.597Z,29.60
2018-01-24T19:30:58.441Z,33.13
2018-01-24T19:33:25.282Z,26.73
2018-01-24T19:35:52.063Z,26.80
2018-01-24T19:38:18.966Z,27.77
2018-01-24T19:40:45.958Z,25.00
2018-01-24T19:43:12.801Z,23.17
2018-01-24T19:45:39.615Z,24.20
2018-01-24T19:48:06.481Z,23.63
2018-01-24T19:50:33.281Z,24.23
2018-01-24T19:53:00.052Z,23.23
2018-01-24T19:55:27.051Z,22.07
2018-01-24T19:57:53.849Z,26.87
2018-01-24T20:00:20.660Z,21.00
2018-01-24T20:02:47.541Z,18.40
2018-01-24T20:05:14.330Z,18.93
2018-01-24T20:07:41.234Z,21.73
2018-01-24T20:10:08.139Z,22.37
2018-01-24T20:12:35.022Z,19.50
2018-01-24T20:15:01.776Z,24.50
2018-01-24T20:17:28.574Z,19.47
2018-01-24T20:19:55.366Z,23.53
2018-01-24T20:22:22.113Z,23.20
2018-01-24T20:24:48.903Z,26.17
2018-01-24T20:27:15.734Z,24.20
2018-01-24T20:29:42.604Z,24.90
2018-01-24T20:32:09.416Z,25.90
2018-01-24T20:34:36.169Z,24.40
2018-01-24T20:37:03.821Z,22.07
2018-01-24T20:39:33.799Z,24.53
2018-01-24T20:42:00.713Z,26.73
2018-01-24T20:44:37.491Z,24.10
2018-01-24T20:47:04.255Z,23.77
2018-01-24T20:49:39.501Z,26.73
2018-01-24T20:52:10.264Z,22.20
2018-01-24T20:54:37.586Z,20.10
2018-01-24T20:57:04.404Z,22.80
2018-01-24T20:59:53.963Z,24.50
2018-01-24T21:02:21.698Z,21.67
2018-01-24T21:04:48.711Z,20.43
2018-01-24T21:07:16.328Z,28.07
2018-01-24T21:09:44.263Z,27.27
2018-01-24T21:12:11.250Z,26.13
2018-01-24T21:14:42.659Z,23.53
2018-01-24T21:17:22.538Z,23.10
2018-01-24T21:19:49.425Z,27.40
2018-01-24T21:22:16.213Z,30.43
2018-01-24T21:24:43.007Z,23.13
2018-01-24T21:27:09.757Z,27.13
2018-01-24T21:29:42.689Z,25.63
2018-01-24T21:32:15.351Z,25.50
2018-01-24T21:34:48.214Z,26.53
2018-01-24T21:37:15.076Z,24.70
2018-01-24T21:39:42.808Z,24.10
2018-01-24T21:42:09.775Z,25.30
2018-01-24T21:44:36.597Z,23.27
2018-01-24T21:47:03.417Z,24.47
2018-01-24T21:49:30.465Z,25.20
2018-01-24T21:51:57.353Z,23.97
2018-01-24T21:54:24.151Z,24.50
2018-01-24T21:56:53.854Z,29.17
2018-01-24T21:59:20.614Z,25.63
2018-01-24T22:01:47.672Z,23.20
2018-01-24T22:04:14.424Z,29.43
2018-01-24T22:06:41.248Z,30.63
2018-01-24T22:09:08.018Z,23.43
2018-01-24T22:11:34.770Z,25.10
2018-01-24T22:14:01.664Z,24.80
2018-01-24T22:16:28.403Z,24.83
2018-01-24T22:18:55.199Z,25.63
2018-01-24T22:21:21.991Z,24.47
2018-01-24T22:23:48.779Z,24.80
2018-01-24T22:26:15.673Z,27.30
2018-01-24T22:28:42.463Z,27.60
2018-01-24T22:31:09.215Z,29.37
2018-01-24T22:33:35.999Z,22.77
2018-01-24T22:36:02.781Z,28.67
2018-01-24T22:38:30.491Z,26.30
2018-01-24T22:40:57.269Z,26.23
2018-01-24T22:43:23.993Z,24.70
2018-01-24T22:45:50.854Z,26.17
2018-01-24T22:48:17.751Z,29.27
2018-01-24T22:50:44.512Z,25.83
2018-01-24T22:53:11.323Z,25.77
2018-01-24T22:55:38.085Z,24.93
2018-01-24T22:58:04.870Z,22.10
2018-01-24T23:00:31.662Z,23.60
2018-01-24T23:02:58.418Z,24.90
2018-01-24T23:05:25.181Z,29.53
2018-01-24T23:07:51.965Z,25.67
2018-01-24T23:10:18.836Z,24.33
2018-01-24T23:12:45.567Z,24.90
2018-01-24T23:15:12.419Z,27.80
2018-01-24T23:17:39.166Z,23.93
2018-01-24T23:20:05.965Z,23.10
2018-01-24T23:22:32.709Z,23.63
2018-01-24T23:24:59.499Z,23.87
2018-01-24T23:27:26.601Z,23.53
2018-01-24T23:29:53.339Z,28.50
2018-01-24T23:32:20.113Z,21.37
2018-01-24T23:34:47.062Z,30.87
2018-01-24T23:37:13.818Z,21.17
2018-01-24T23:39:40.597Z,22.33
2018-01-24T23:42:09.272Z,24.60
2018-01-24T23:44:47.137Z,30.30
2018-01-24T23:47:13.971Z,25.80
2018-01-24T23:49:40.790Z,27.90
2018-01-24T23:52:10.803Z,25.00
2018-01-24T23:55:23.897Z,27.60
2018-01-24T23:57:50.637Z,27.10
